createdAt,value
2017-09-11T00:00:14.866Z,15.10
2017-09-11T00:02:42.339Z,15.10
2017-09-11T00:05:10.535Z,15.10
2017-09-11T00:07:38.028Z,15.10
2017-09-11T00:10:05.500Z,15.10
2017-09-11T00:12:33.047Z,15.10
2017-09-11T00:15:00.514Z,15.10
2017-09-11T00:17:28.082Z,15.10
2017-09-11T00:19:55.623Z,15.00
2017-09-11T00:22:23.081Z,15.00
2017-09-11T00:24:50.523Z,15.00
2017-09-11T00:27:18.003Z,15.00
2017-09-11T00:29:45.463Z,15.00
2017-09-11T00:32:12.902Z,15.00
2017-09-11T00:34:40.343Z,14.90
2017-09-11T00:37:07.783Z,14.90
2017-09-11T00:39:35.230Z,15.00
2017-09-11T00:42:02.658Z,15.00
2017-09-11T00:44:30.175Z,15.10
2017-09-11T00:46:57.627Z,15.10
2017-09-11T00:49:25.190Z,15.00
2017-09-11T00:51:52.632Z,15.00
2017-09-11T00:54:20.076Z,15.00
2017-09-11T00:56:47.512Z,15.00
2017-09-11T00:59:15.757Z,15.00
2017-09-11T01:01:43.214Z,14.90
2017-09-11T01:04:10.755Z,15.00
2017-09-11T01:06:38.314Z,15.00
2017-09-11T01:09:05.779Z,15.00
2017-09-11T01:11:33.210Z,15.00
2017-09-11T01:14:00.641Z,15.00
2017-09-11T01:16:28.110Z,15.00
2017-09-11T01:18:55.542Z,15.00
2017-09-11T01:21:23.002Z,15.10
2017-09-11T01:23:51.592Z,15.10
2017-09-11T01:26:19.019Z,15.00
2017-09-11T01:28:47.225Z,15.10
2017-09-11T01:31:14.710Z,15.10
2017-09-11T01:33:42.164Z,15.10
2017-09-11T01:36:09.661Z,15.20
2017-09-11T01:38:37.102Z,15.20
2017-09-11T01:41:04.554Z,15.10
2017-09-11T01:43:31.996Z,15.10
2017-09-11T01:45:59.486Z,15.20
2017-09-11T01:48:27.012Z,15.20
2017-09-11T01:50:54.448Z,15.10
2017-09-11T01:53:21.879Z,15.10
2017-09-11T01:55:49.322Z,15.20
2017-09-11T01:58:17.523Z,15.10
2017-09-11T02:00:45.130Z,15.10
2017-09-11T02:03:12.565Z,15.10
2017-09-11T02:05:40.024Z,15.10
2017-09-11T02:08:07.494Z,15.10
2017-09-11T02:10:34.959Z,15.10
2017-09-11T02:13:02.414Z,15.10
2017-09-11T02:15:29.872Z,15.10
2017-09-11T02:17:57.407Z,15.20
2017-09-11T02:20:24.844Z,15.10
2017-09-11T02:22:52.278Z,15.20
2017-09-11T02:25:19.721Z,15.20
2017-09-11T02:27:48.052Z,15.20
2017-09-11T02:30:15.528Z,15.10
2017-09-11T02:32:42.973Z,15.10
2017-09-11T02:35:10.472Z,15.20
2017-09-11T02:37:38.655Z,15.20
2017-09-11T02:40:06.095Z,15.20
2017-09-11T02:42:33.599Z,15.30
2017-09-11T02:45:01.056Z,15.30
2017-09-11T02:47:28.551Z,15.30
2017-09-11T02:49:56.074Z,15.30
2017-09-11T02:52:23.529Z,15.30
2017-09-11T02:54:50.974Z,15.30
2017-09-11T02:57:18.399Z,15.40
2017-09-11T02:59:45.885Z,15.50
2017-09-11T03:02:13.367Z,15.50
2017-09-11T03:04:40.806Z,15.40
2017-09-11T03:07:08.242Z,15.40
2017-09-11T03:09:35.731Z,15.40
2017-09-11T03:12:03.179Z,15.40
2017-09-11T03:14:30.658Z,15.40
2017-09-11T03:16:58.094Z,15.40
2017-09-11T03:19:25.546Z,15.40
2017-09-11T03:21:52.975Z,15.40
2017-09-11T03:24:20.471Z,15.40
2017-09-11T03:26:47.898Z,15.30
2017-09-11T03:29:15.396Z,15.40
2017-09-11T03:31:42.826Z,15.40
2017-09-11T03:34:10.251Z,15.40
2017-09-11T03:36:37.693Z,15.40
2017-09-11T03:39:05.883Z,15.40
2017-09-11T03:41:33.380Z,15.40
2017-09-11T03:44:00.829Z,15.40
2017-09-11T03:46:28.266Z,15.50
2017-09-11T03:48:55.690Z,15.50
2017-09-11T03:51:23.920Z,15.60
2017-09-11T03:53:51.931Z,15.50
2017-09-11T03:56:20.136Z,15.60
2017-09-11T03:58:47.627Z,15.50
2017-09-11T04:01:15.060Z,15.60
2017-09-11T04:03:42.495Z,15.60
2017-09-11T04:06:09.923Z,15.70
2017-09-11T04:08:38.123Z,15.70
2017-09-11T04:11:05.555Z,15.60
2017-09-11T04:13:33.782Z,15.70
2017-09-11T04:16:01.251Z,15.60
2017-09-11T04:18:28.707Z,15.60
2017-09-11T04:20:56.164Z,15.70
2017-09-11T04:23:23.599Z,15.70
2017-09-11T04:25:51.057Z,15.70
2017-09-11T04:28:18.710Z,15.70
2017-09-11T04:30:46.134Z,15.70
2017-09-11T04:33:14.322Z,15.70
2017-09-11T04:35:41.818Z,15.70
2017-09-11T04:38:09.283Z,15.70
2017-09-11T04:40:36.734Z,15.60
2017-09-11T04:43:04.154Z,15.50
2017-09-11T04:45:31.666Z,15.40
2017-09-11T04:47:59.115Z,15.30
2017-09-11T04:50:26.765Z,15.20
2017-09-11T04:52:54.223Z,15.10
2017-09-11T04:55:21.642Z,15.10
2017-09-11T04:57:49.093Z,15.00
2017-09-11T05:00:16.547Z,15.00
2017-09-11T05:02:44.061Z,14.90
2017-09-11T05:05:11.609Z,14.80
2017-09-11T05:07:39.057Z,14.80
2017-09-11T05:10:06.490Z,14.80
2017-09-11T05:12:33.998Z,14.70
2017-09-11T05:15:01.527Z,14.70
2017-09-11T05:17:29.002Z,14.70
2017-09-11T05:19:56.526Z,14.80
2017-09-11T05:22:23.984Z,14.70
2017-09-11T05:24:51.403Z,14.70
2017-09-11T05:27:19.606Z,14.70
2017-09-11T05:29:47.047Z,14.70
2017-09-11T05:32:14.576Z,14.70
2017-09-11T05:34:42.034Z,14.70
2017-09-11T05:37:09.496Z,14.80
2017-09-11T05:39:36.915Z,14.80
2017-09-11T05:42:04.371Z,14.90
2017-09-11T05:44:31.870Z,14.90
2017-09-11T05:47:00.283Z,15.10
2017-09-11T05:49:27.716Z,15.10
2017-09-11T05:51:55.143Z,15.10
2017-09-11T05:54:23.346Z,15.10
2017-09-11T05:56:50.774Z,15.00
2017-09-11T05:59:18.974Z,15.20
2017-09-11T06:01:46.663Z,15.10
2017-09-11T06:04:14.223Z,15.20
2017-09-11T06:06:41.717Z,15.30
2017-09-11T06:09:09.188Z,15.40
2017-09-11T06:11:37.392Z,15.40
2017-09-11T06:14:04.876Z,15.40
2017-09-11T06:16:32.398Z,15.50
2017-09-11T06:19:00.591Z,15.60
2017-09-11T06:21:28.035Z,15.60
2017-09-11T06:23:55.470Z,15.70
2017-09-11T06:26:23.713Z,15.80
2017-09-11T06:28:51.168Z,15.70
2017-09-11T06:31:18.598Z,15.80
2017-09-11T06:33:46.071Z,15.80
2017-09-11T06:36:13.563Z,16.00
2017-09-11T06:38:41.019Z,16.00
2017-09-11T06:41:08.448Z,16.00
2017-09-11T06:43:35.981Z,16.10
2017-09-11T06:46:03.432Z,16.10
2017-09-11T06:48:30.893Z,16.10
2017-09-11T06:50:58.333Z,16.20
2017-09-11T06:53:25.851Z,16.20
2017-09-11T06:55:53.301Z,16.20
2017-09-11T06:58:20.733Z,16.20
2017-09-11T07:00:48.178Z,16.20
2017-09-11T07:03:15.655Z,16.30
2017-09-11T07:05:43.112Z,16.30
2017-09-11T07:08:10.576Z,16.30
2017-09-11T07:10:38.027Z,16.40
2017-09-11T07:13:17.537Z,16.40
2017-09-11T07:15:44.973Z,16.50
2017-09-11T07:18:12.398Z,16.60
2017-09-11T07:20:40.639Z,16.60
2017-09-11T07:23:08.080Z,16.50
2017-09-11T07:25:35.552Z,16.60
2017-09-11T07:28:03.017Z,16.60
2017-09-11T07:30:30.514Z,16.80
2017-09-11T07:32:58.834Z,16.90
2017-09-11T07:35:26.287Z,16.90
2017-09-11T07:37:53.790Z,16.90
2017-09-11T07:40:21.329Z,17.00
2017-09-11T07:42:48.757Z,17.00
2017-09-11T07:45:16.230Z,17.00
2017-09-11T07:47:43.676Z,16.80
2017-09-11T07:50:11.112Z,16.80
2017-09-11T07:52:38.615Z,16.80
2017-09-11T07:55:06.079Z,16.80
2017-09-11T07:57:34.295Z,16.90
2017-09-11T08:00:01.733Z,16.90
2017-09-11T08:02:29.311Z,16.90
2017-09-11T08:04:56.791Z,16.80
2017-09-11T08:07:24.263Z,16.90
2017-09-11T08:09:52.463Z,17.00
2017-09-11T08:12:20.674Z,17.20
2017-09-11T08:14:48.170Z,17.10
2017-09-11T08:17:15.659Z,17.30
2017-09-11T08:19:43.856Z,17.20
2017-09-11T08:22:11.297Z,17.20
2017-09-11T08:24:38.772Z,17.10
2017-09-11T08:27:06.208Z,17.00
2017-09-11T08:29:33.784Z,16.90
2017-09-11T08:32:01.245Z,17.00
2017-09-11T08:34:28.726Z,17.10
2017-09-11T08:36:56.183Z,17.10
2017-09-11T08:39:23.630Z,17.30
2017-09-11T08:41:51.074Z,17.20
2017-09-11T08:44:18.558Z,17.20
2017-09-11T08:46:46.123Z,17.20
2017-09-11T08:49:13.713Z,17.20
2017-09-11T08:51:41.951Z,17.00
2017-09-11T08:54:09.371Z,16.90
2017-09-11T08:56:36.834Z,16.90
2017-09-11T08:59:04.294Z,16.90
2017-09-11T09:01:31.777Z,17.00
2017-09-11T09:04:00.068Z,16.90
2017-09-11T09:06:28.323Z,16.90
2017-09-11T09:08:55.860Z,16.90
2017-09-11T09:11:23.306Z,17.00
2017-09-11T09:13:50.839Z,17.20
2017-09-11T09:16:18.322Z,17.40
2017-09-11T09:18:45.787Z,17.50
2017-09-11T09:21:13.234Z,17.70
2017-09-11T09:23:40.683Z,17.90
2017-09-11T09:26:08.151Z,18.00
2017-09-11T09:28:35.619Z,18.10
2017-09-11T09:31:03.052Z,16.90
2017-09-11T09:33:30.513Z,18.10
2017-09-11T09:35:57.946Z,18.00
2017-09-11T09:38:25.430Z,18.10
2017-09-11T09:40:52.890Z,17.90
2017-09-11T09:43:20.315Z,17.80
2017-09-11T09:45:47.766Z,17.80
2017-09-11T09:48:15.352Z,17.80
2017-09-11T09:50:42.892Z,17.80
2017-09-11T09:53:10.347Z,17.80
2017-09-11T09:55:37.849Z,17.90
2017-09-11T09:58:05.408Z,18.00
2017-09-11T10:00:32.870Z,18.00
2017-09-11T10:03:01.069Z,18.10
2017-09-11T10:05:28.635Z,18.10
2017-09-11T10:07:56.829Z,18.30
2017-09-11T10:10:24.290Z,18.20
2017-09-11T10:12:51.730Z,18.50
2017-09-11T10:15:19.234Z,18.70
2017-09-11T10:17:46.799Z,18.60
2017-09-11T10:20:14.276Z,18.70
2017-09-11T10:22:42.507Z,18.90
2017-09-11T10:25:09.982Z,18.90
2017-09-11T10:27:37.422Z,19.00
2017-09-11T10:30:04.890Z,19.20
2017-09-11T10:32:32.439Z,19.20
2017-09-11T10:34:59.871Z,19.20
2017-09-11T10:37:27.387Z,19.40
2017-09-11T10:39:54.931Z,19.20
2017-09-11T10:42:22.459Z,19.10
2017-09-11T10:44:49.953Z,19.00
2017-09-11T10:47:17.438Z,18.80
2017-09-11T10:49:45.701Z,18.90
2017-09-11T10:52:13.158Z,18.90
2017-09-11T10:54:40.699Z,19.20
2017-09-11T10:57:08.269Z,19.40
2017-09-11T10:59:35.710Z,19.50
2017-09-11T11:02:03.180Z,19.20
2017-09-11T11:04:30.630Z,19.00
2017-09-11T11:06:58.068Z,19.10
2017-09-11T11:09:25.518Z,19.00
2017-09-11T11:11:52.937Z,19.00
2017-09-11T11:14:20.395Z,19.10
2017-09-11T11:16:48.652Z,19.20
2017-09-11T11:19:16.128Z,19.10
2017-09-11T11:21:43.549Z,19.00
2017-09-11T11:24:11.051Z,18.90
2017-09-11T11:26:38.502Z,18.90
2017-09-11T11:29:06.100Z,19.00
2017-09-11T11:31:33.643Z,19.00
2017-09-11T11:34:01.147Z,19.10
2017-09-11T11:36:28.603Z,19.30
2017-09-11T11:38:56.110Z,19.30
2017-09-11T11:41:24.420Z,19.30
2017-09-11T11:44:24.518Z,21.30
2017-09-11T11:46:52.006Z,19.40
2017-09-11T11:49:19.579Z,19.40
2017-09-11T11:51:47.159Z,19.40
2017-09-11T11:54:15.350Z,19.40
2017-09-11T11:56:42.795Z,19.40
2017-09-11T11:59:11.011Z,19.60
2017-09-11T12:01:38.462Z,19.60
2017-09-11T12:04:05.932Z,19.80
2017-09-11T12:06:33.392Z,19.80
2017-09-11T12:09:00.875Z,19.70
2017-09-11T12:11:28.323Z,19.70
2017-09-11T12:13:55.773Z,19.60
2017-09-11T12:16:23.258Z,19.50
2017-09-11T12:18:50.788Z,19.60
2017-09-11T12:21:18.300Z,19.60
2017-09-11T12:23:45.962Z,19.60
2017-09-11T12:26:14.190Z,19.70
2017-09-11T12:28:41.633Z,19.60
2017-09-11T12:31:09.126Z,19.70
2017-09-11T12:33:36.575Z,19.90
2017-09-11T12:36:04.047Z,20.10
2017-09-11T12:38:32.267Z,20.40
2017-09-11T12:40:59.709Z,20.30
2017-09-11T12:43:27.177Z,20.50
2017-09-11T12:45:54.703Z,20.60
2017-09-11T12:48:22.958Z,20.30
2017-09-11T12:50:51.147Z,20.40
2017-09-11T12:53:19.375Z,20.40
2017-09-11T12:55:46.801Z,20.40
2017-09-11T12:58:14.239Z,20.60
2017-09-11T13:00:42.601Z,20.60
2017-09-11T13:03:10.111Z,20.50
2017-09-11T13:05:37.531Z,20.40
2017-09-11T13:08:05.739Z,20.40
2017-09-11T13:10:33.260Z,20.30
2017-09-11T13:13:00.730Z,20.40
2017-09-11T13:15:28.209Z,20.30
2017-09-11T13:17:56.411Z,19.90
2017-09-11T13:20:23.856Z,19.80
2017-09-11T13:22:51.350Z,19.80
2017-09-11T13:25:18.791Z,20.00
2017-09-11T13:27:46.223Z,20.10
2017-09-11T13:30:13.692Z,20.20
2017-09-11T13:32:41.131Z,20.20
2017-09-11T13:35:08.599Z,20.10
2017-09-11T13:37:36.040Z,20.10
2017-09-11T13:40:03.491Z,20.30
2017-09-11T13:42:30.946Z,20.40
2017-09-11T13:44:58.423Z,20.60
2017-09-11T13:47:26.666Z,20.50
2017-09-11T13:49:54.111Z,20.40
2017-09-11T13:52:21.560Z,20.10
2017-09-11T13:54:49.023Z,19.80
2017-09-11T13:57:16.468Z,19.80
2017-09-11T13:59:44.018Z,19.90
2017-09-11T14:02:11.567Z,19.90
2017-09-11T14:04:39.024Z,19.90
2017-09-11T14:07:06.527Z,19.90
2017-09-11T14:09:34.730Z,19.80
2017-09-11T14:12:02.247Z,19.80
2017-09-11T14:14:30.606Z,19.90
2017-09-11T14:16:58.067Z,19.80
2017-09-11T14:19:25.607Z,19.70
2017-09-11T14:21:53.166Z,19.60
2017-09-11T14:24:20.618Z,19.70
2017-09-11T14:26:48.071Z,19.60
2017-09-11T14:29:15.516Z,19.50
2017-09-11T14:31:42.945Z,19.60
2017-09-11T14:34:10.435Z,19.90
2017-09-11T14:36:37.872Z,20.00
2017-09-11T14:39:05.542Z,20.00
2017-09-11T14:41:33.010Z,19.90
2017-09-11T14:44:00.463Z,19.90
2017-09-11T14:46:27.908Z,20.10
2017-09-11T14:48:55.369Z,20.00
2017-09-11T14:51:22.822Z,19.70
2017-09-11T14:53:50.291Z,19.20
2017-09-11T14:56:17.738Z,19.00
2017-09-11T14:58:45.171Z,18.90
2017-09-11T15:01:12.620Z,18.80
2017-09-11T15:03:40.163Z,18.80
2017-09-11T15:06:08.362Z,18.80
2017-09-11T15:08:35.863Z,18.70
2017-09-11T15:11:03.322Z,18.60
2017-09-11T15:13:30.801Z,18.10
2017-09-11T15:15:59.021Z,16.50
2017-09-11T15:18:26.543Z,16.40
2017-09-11T15:20:54.795Z,15.40
2017-09-11T15:23:22.239Z,15.40
2017-09-11T15:25:49.707Z,15.40
2017-09-11T15:28:18.667Z,15.80
2017-09-11T15:30:46.215Z,15.80
2017-09-11T15:33:13.703Z,16.10
2017-09-11T15:35:41.148Z,16.40
2017-09-11T15:38:08.584Z,16.50
2017-09-11T15:40:36.071Z,16.70
2017-09-11T15:43:03.515Z,17.20
2017-09-11T15:45:30.956Z,18.20
2017-09-11T15:47:58.451Z,19.20
2017-09-11T15:50:25.894Z,20.20
2017-09-11T15:52:53.330Z,21.30
2017-09-11T15:55:20.812Z,22.40
2017-09-11T15:57:48.251Z,22.10
2017-09-11T16:00:15.775Z,21.90
2017-09-11T16:02:43.983Z,20.90
2017-09-11T16:05:11.599Z,20.80
2017-09-11T16:07:39.815Z,22.30
2017-09-11T16:10:07.295Z,22.30
2017-09-11T16:12:34.756Z,23.30
2017-09-11T16:15:02.253Z,24.50
2017-09-11T16:17:29.738Z,24.80
2017-09-11T16:19:57.298Z,25.00
2017-09-11T16:22:24.791Z,24.90
2017-09-11T16:24:52.233Z,24.90
2017-09-11T16:27:19.697Z,25.20
2017-09-11T16:29:47.203Z,25.10
2017-09-11T16:32:14.622Z,24.90
2017-09-11T16:34:42.202Z,24.70
2017-09-11T16:37:10.470Z,25.80
2017-09-11T16:39:37.934Z,25.80
2017-09-11T16:42:05.421Z,25.50
2017-09-11T16:44:33.756Z,24.80
2017-09-11T16:47:01.224Z,24.80
2017-09-11T16:49:28.798Z,24.00
2017-09-11T16:51:56.247Z,23.70
2017-09-11T16:54:24.475Z,22.30
2017-09-11T16:56:51.944Z,22.20
2017-09-11T16:59:19.421Z,21.50
2017-09-11T17:01:46.879Z,21.10
2017-09-11T17:04:14.334Z,20.90
2017-09-11T17:06:41.918Z,20.90
2017-09-11T17:09:09.456Z,20.70
2017-09-11T17:11:36.887Z,20.40
2017-09-11T17:14:04.354Z,20.00
2017-09-11T17:16:31.784Z,19.60
2017-09-11T17:18:59.284Z,19.30
2017-09-11T17:21:26.908Z,19.10
2017-09-11T17:23:54.375Z,19.00
2017-09-11T17:26:21.818Z,18.60
2017-09-11T17:28:49.254Z,18.20
2017-09-11T17:31:16.778Z,17.80
2017-09-11T17:33:44.362Z,17.60
2017-09-11T17:36:12.115Z,17.50
2017-09-11T17:38:40.356Z,17.40
2017-09-11T17:41:08.803Z,17.30
2017-09-11T17:43:36.239Z,17.20
2017-09-11T17:46:03.699Z,17.30
2017-09-11T17:48:31.192Z,17.20
2017-09-11T17:50:58.652Z,17.20
2017-09-11T17:53:26.843Z,16.90
2017-09-11T17:55:54.354Z,16.80
2017-09-11T17:58:21.914Z,16.90
2017-09-11T18:00:49.366Z,16.90
2017-09-11T18:03:16.904Z,16.90
2017-09-11T18:05:44.380Z,16.80
2017-09-11T18:08:11.827Z,16.80
2017-09-11T18:10:39.287Z,16.80
2017-09-11T18:13:06.786Z,16.80
2017-09-11T18:15:35.035Z,16.70
2017-09-11T18:18:02.499Z,16.60
2017-09-11T18:20:30.867Z,16.50
2017-09-11T18:22:58.419Z,16.50
2017-09-11T18:25:25.935Z,16.40
2017-09-11T18:27:53.436Z,16.40
2017-09-11T18:30:20.955Z,16.30
2017-09-11T18:32:48.539Z,16.30
2017-09-11T18:35:16.110Z,16.30
2017-09-11T18:37:43.642Z,16.30
2017-09-11T18:40:11.161Z,16.20
2017-09-11T18:42:38.842Z,16.20
2017-09-11T18:45:06.297Z,16.20
2017-09-11T18:47:33.807Z,16.20
2017-09-11T18:50:01.313Z,16.20
2017-09-11T18:52:28.813Z,16.20
2017-09-11T18:54:56.257Z,16.10
2017-09-11T18:57:23.703Z,16.00
2017-09-11T18:59:51.182Z,16.10
2017-09-11T19:02:18.707Z,16.00
2017-09-11T19:04:46.286Z,16.00
2017-09-11T19:07:13.719Z,16.00
2017-09-11T19:09:41.201Z,15.90
2017-09-11T19:12:08.737Z,15.90
2017-09-11T19:14:36.268Z,15.90
2017-09-11T19:17:03.843Z,15.90
2017-09-11T19:19:31.321Z,15.90
2017-09-11T19:21:58.815Z,15.90
2017-09-11T19:24:27.070Z,15.80
2017-09-11T19:26:54.526Z,15.80
2017-09-11T19:29:22.746Z,15.90
2017-09-11T19:31:50.336Z,15.90
2017-09-11T19:34:17.906Z,15.90
2017-09-11T19:36:45.443Z,15.90
2017-09-11T19:39:12.914Z,15.90
2017-09-11T19:41:40.448Z,15.80
2017-09-11T19:44:08.879Z,15.80
2017-09-11T19:46:37.100Z,15.80
2017-09-11T19:49:04.576Z,15.80
2017-09-11T19:51:32.040Z,15.80
2017-09-11T19:53:59.510Z,15.70
2017-09-11T19:56:27.047Z,15.80
2017-09-11T19:58:54.499Z,15.70
2017-09-11T20:01:21.944Z,15.80
2017-09-11T20:03:49.368Z,15.80
2017-09-11T20:06:16.872Z,15.90
2017-09-11T20:08:44.308Z,15.90
2017-09-11T20:11:11.756Z,15.90
2017-09-11T20:13:40.064Z,15.90
2017-09-11T20:16:07.508Z,15.90
2017-09-11T20:18:34.959Z,15.90
2017-09-11T20:21:02.443Z,15.90
2017-09-11T20:23:29.978Z,15.90
2017-09-11T20:25:57.439Z,15.80
2017-09-11T20:28:24.932Z,15.70
2017-09-11T20:30:52.503Z,15.70
2017-09-11T20:33:20.751Z,15.60
2017-09-11T20:35:48.179Z,15.60
2017-09-11T20:38:15.719Z,15.60
2017-09-11T20:40:43.207Z,15.50
2017-09-11T20:43:10.663Z,15.40
2017-09-11T20:45:38.111Z,15.40
2017-09-11T20:48:05.558Z,15.30
2017-09-11T20:50:33.021Z,15.40
2017-09-11T20:53:00.506Z,15.40
2017-09-11T20:55:27.965Z,15.50
2017-09-11T20:57:55.380Z,15.50
2017-09-11T21:00:22.826Z,15.60
2017-09-11T21:02:50.286Z,15.60
2017-09-11T21:05:17.786Z,15.70
2017-09-11T21:07:45.337Z,15.70
2017-09-11T21:10:12.791Z,15.80
2017-09-11T21:12:40.223Z,15.70
2017-09-11T21:15:07.670Z,15.80
2017-09-11T21:17:35.132Z,15.80
2017-09-11T21:20:02.587Z,15.80
2017-09-11T21:22:30.026Z,15.80
2017-09-11T21:24:57.459Z,15.80
2017-09-11T21:27:25.675Z,15.80
2017-09-11T21:29:53.133Z,15.80
2017-09-11T21:32:20.618Z,15.90
2017-09-11T21:34:48.050Z,15.90
2017-09-11T21:37:15.492Z,15.90
2017-09-11T21:39:43.066Z,15.90
2017-09-11T21:42:10.527Z,15.90
2017-09-11T21:44:37.961Z,15.90
2017-09-11T21:47:05.565Z,15.80
2017-09-11T21:49:33.007Z,15.80
2017-09-11T21:52:00.478Z,15.70
2017-09-11T21:54:28.007Z,15.70
2017-09-11T21:56:55.956Z,15.70
2017-09-11T21:59:23.463Z,15.60
2017-09-11T22:01:51.679Z,15.60
2017-09-11T22:04:19.171Z,15.50
2017-09-11T22:06:46.595Z,15.60
2017-09-11T22:09:14.066Z,15.50
2017-09-11T22:11:41.487Z,15.60
2017-09-11T22:14:09.697Z,15.60
2017-09-11T22:16:37.132Z,15.50
2017-09-11T22:19:04.620Z,15.50
2017-09-11T22:21:32.083Z,15.50
2017-09-11T22:23:59.512Z,15.40
2017-09-11T22:26:26.945Z,15.30
2017-09-11T22:28:54.384Z,15.30
2017-09-11T22:31:22.579Z,15.30
2017-09-11T22:33:50.034Z,15.20
2017-09-11T22:36:17.558Z,15.30
2017-09-11T22:38:46.632Z,15.20
2017-09-11T22:41:14.090Z,15.30
2017-09-11T22:43:41.539Z,15.20
2017-09-11T22:46:08.971Z,15.30
2017-09-11T22:48:36.415Z,15.20
2017-09-11T22:51:03.868Z,15.20
2017-09-11T22:53:32.059Z,15.20
2017-09-11T22:55:59.502Z,15.10
2017-09-11T22:58:26.939Z,15.10
2017-09-11T23:00:55.173Z,15.10
2017-09-11T23:03:22.619Z,15.10
2017-09-11T23:05:50.102Z,15.10
2017-09-11T23:08:17.530Z,15.00
2017-09-11T23:10:45.004Z,15.00
2017-09-11T23:13:12.426Z,15.00
2017-09-11T23:15:39.887Z,15.00
2017-09-11T23:18:08.839Z,14.90
2017-09-11T23:20:36.264Z,14.90
2017-09-11T23:23:04.480Z,14.90
2017-09-11T23:25:31.914Z,14.80
2017-09-11T23:27:59.370Z,14.90
2017-09-11T23:30:26.807Z,14.80
2017-09-11T23:32:54.419Z,14.80
2017-09-11T23:35:21.881Z,14.80
2017-09-11T23:37:49.337Z,14.80
2017-09-11T23:40:16.793Z,14.80
2017-09-11T23:42:44.247Z,14.80
2017-09-11T23:45:11.800Z,14.80
2017-09-11T23:47:39.298Z,14.80
2017-09-11T23:50:06.754Z,14.80
2017-09-11T23:52:34.219Z,14.80
2017-09-11T23:55:01.665Z,14.90
2017-09-11T23:57:29.230Z,14.90
2017-09-11T23:59:56.662Z,14.90
